sensor_id;sensor_type;location;lat;lon;timestamp;P1;durP1;ratioP1;P2;durP2;ratioP2
80127;SDS011;69440;52.118;5.408;2023-06-05T00:01:50;6.88;;;3.20;;
80127;SDS011;69440;52.118;5.408;2023-06-05T00:04:17;4.53;;;2.70;;
80127;SDS011;69440;52.118;5.408;2023-06-05T00:06:43;4.45;;;2.92;;
80127;SDS011;69440;52.118;5.408;2023-06-05T00:09:10;5.35;;;3.15;;
80127;SDS011;69440;52.118;5.408;2023-06-05T00:11:36;6.80;;;3.30;;
80127;SDS011;69440;52.118;5.408;2023-06-05T00:14:02;5.38;;;3.20;;
80127;SDS011;69440;52.118;5.408;2023-06-05T00:16:29;5.05;;;3.10;;
80127;SDS011;69440;52.118;5.408;2023-06-05T00:18:55;6.47;;;2.97;;
80127;SDS011;69440;52.118;5.408;2023-06-05T00:21:22;5.85;;;3.40;;
80127;SDS011;69440;52.118;5.408;2023-06-05T00:23:49;9.02;;;3.28;;
80127;SDS011;69440;52.118;5.408;2023-06-05T00:26:15;5.78;;;3.00;;
80127;SDS011;69440;52.118;5.408;2023-06-05T00:28:42;5.63;;;3.03;;
80127;SDS011;69440;52.118;5.408;2023-06-05T00:31:08;5.78;;;3.20;;
80127;SDS011;69440;52.118;5.408;2023-06-05T00:33:36;5.85;;;2.95;;
80127;SDS011;69440;52.118;5.408;2023-06-05T00:36:02;6.22;;;3.10;;
80127;SDS011;69440;52.118;5.408;2023-06-05T00:38:29;5.30;;;2.95;;
80127;SDS011;69440;52.118;5.408;2023-06-05T00:40:55;7.35;;;3.55;;
80127;SDS011;69440;52.118;5.408;2023-06-05T00:43:21;5.78;;;2.80;;
80127;SDS011;69440;52.118;5.408;2023-06-05T00:45:48;5.68;;;3.30;;
80127;SDS011;69440;52.118;5.408;2023-06-05T00:48:17;5.13;;;3.10;;
80127;SDS011;69440;52.118;5.408;2023-06-05T00:50:44;5.15;;;3.13;;
80127;SDS011;69440;52.118;5.408;2023-06-05T00:53:11;6.10;;;3.75;;
80127;SDS011;69440;52.118;5.408;2023-06-05T00:55:38;6.65;;;3.08;;
80127;SDS011;69440;52.118;5.408;2023-06-05T00:58:04;7.25;;;3.30;;
80127;SDS011;69440;52.118;5.408;2023-06-05T01:00:31;6.30;;;3.10;;
80127;SDS011;69440;52.118;5.408;2023-06-05T01:02:58;8.68;;;4.22;;
80127;SDS011;69440;52.118;5.408;2023-06-05T01:05:25;6.50;;;3.72;;
80127;SDS011;69440;52.118;5.408;2023-06-05T01:07:52;7.28;;;3.55;;
80127;SDS011;69440;52.118;5.408;2023-06-05T01:10:19;5.72;;;3.10;;
80127;SDS011;69440;52.118;5.408;2023-06-05T01:15:24;7.80;;;3.47;;
80127;SDS011;69440;52.118;5.408;2023-06-05T01:17:58;6.57;;;3.55;;
80127;SDS011;69440;52.118;5.408;2023-06-05T01:20:35;6.18;;;3.28;;
80127;SDS011;69440;52.118;5.408;2023-06-05T01:23:04;6.45;;;3.60;;
80127;SDS011;69440;52.118;5.408;2023-06-05T01:25:31;9.75;;;3.90;;
80127;SDS011;69440;52.118;5.408;2023-06-05T01:30:35;6.78;;;3.45;;
80127;SDS011;69440;52.118;5.408;2023-06-05T01:33:17;6.03;;;3.42;;
80127;SDS011;69440;52.118;5.408;2023-06-05T01:35:55;5.93;;;3.35;;
80127;SDS011;69440;52.118;5.408;2023-06-05T01:38:22;6.90;;;3.40;;
80127;SDS011;69440;52.118;5.408;2023-06-05T01:40:50;6.78;;;4.28;;
80127;SDS011;69440;52.118;5.408;2023-06-05T01:43:17;6.00;;;3.60;;
80127;SDS011;69440;52.118;5.408;2023-06-05T01:45:44;6.68;;;3.90;;
80127;SDS011;69440;52.118;5.408;2023-06-05T01:48:11;5.30;;;3.50;;
80127;SDS011;69440;52.118;5.408;2023-06-05T01:50:38;5.82;;;3.75;;
80127;SDS011;69440;52.118;5.408;2023-06-05T01:53:05;6.68;;;3.80;;
80127;SDS011;69440;52.118;5.408;2023-06-05T01:55:32;6.32;;;3.60;;
80127;SDS011;69440;52.118;5.408;2023-06-05T01:57:58;6.57;;;3.47;;
80127;SDS011;69440;52.118;5.408;2023-06-05T02:00:25;8.65;;;3.60;;
80127;SDS011;69440;52.118;5.408;2023-06-05T02:02:51;6.50;;;3.65;;
80127;SDS011;69440;52.118;5.408;2023-06-05T02:05:19;6.20;;;3.67;;
80127;SDS011;69440;52.118;5.408;2023-06-05T02:07:47;8.13;;;4.20;;
80127;SDS011;69440;52.118;5.408;2023-06-05T02:10:24;7.95;;;4.07;;
80127;SDS011;69440;52.118;5.408;2023-06-05T02:12:51;7.03;;;4.00;;
80127;SDS011;69440;52.118;5.408;2023-06-05T02:15:17;10.00;;;4.70;;
80127;SDS011;69440;52.118;5.408;2023-06-05T02:17:44;6.10;;;3.90;;
80127;SDS011;69440;52.118;5.408;2023-06-05T02:20:16;7.68;;;3.72;;
80127;SDS011;69440;52.118;5.408;2023-06-05T02:22:43;10.23;;;4.45;;
80127;SDS011;69440;52.118;5.408;2023-06-05T02:25:16;5.57;;;3.90;;
80127;SDS011;69440;52.118;5.408;2023-06-05T02:27:42;5.95;;;3.75;;
80127;SDS011;69440;52.118;5.408;2023-06-05T02:30:09;7.63;;;4.35;;
80127;SDS011;69440;52.118;5.408;2023-06-05T02:32:37;8.55;;;4.45;;
80127;SDS011;69440;52.118;5.408;2023-06-05T02:35:10;5.68;;;3.72;;
80127;SDS011;69440;52.118;5.408;2023-06-05T02:37:37;10.68;;;4.25;;
80127;SDS011;69440;52.118;5.408;2023-06-05T02:42:39;7.53;;;3.28;;
80127;SDS011;69440;52.118;5.408;2023-06-05T02:45:07;8.02;;;4.38;;
80127;SDS011;69440;52.118;5.408;2023-06-05T02:47:34;6.75;;;3.85;;
80127;SDS011;69440;52.118;5.408;2023-06-05T02:50:03;6.72;;;3.95;;
80127;SDS011;69440;52.118;5.408;2023-06-05T02:52:30;9.27;;;4.57;;
80127;SDS011;69440;52.118;5.408;2023-06-05T02:55:01;9.73;;;4.30;;
80127;SDS011;69440;52.118;5.408;2023-06-05T02:57:31;9.13;;;3.97;;
80127;SDS011;69440;52.118;5.408;2023-06-05T02:59:59;11.63;;;3.97;;
80127;SDS011;69440;52.118;5.408;2023-06-05T03:02:29;9.00;;;4.00;;
80127;SDS011;69440;52.118;5.408;2023-06-05T03:04:56;9.48;;;4.10;;
80127;SDS011;69440;52.118;5.408;2023-06-05T03:07:23;6.50;;;4.13;;
80127;SDS011;69440;52.118;5.408;2023-06-05T03:09:49;9.32;;;5.38;;
80127;SDS011;69440;52.118;5.408;2023-06-05T03:12:16;7.28;;;3.92;;
80127;SDS011;69440;52.118;5.408;2023-06-05T03:14:42;6.70;;;4.45;;
80127;SDS011;69440;52.118;5.408;2023-06-05T03:17:09;7.30;;;4.85;;
80127;SDS011;69440;52.118;5.408;2023-06-05T03:19:35;7.03;;;4.30;;
80127;SDS011;69440;52.118;5.408;2023-06-05T03:22:02;8.70;;;4.85;;
80127;SDS011;69440;52.118;5.408;2023-06-05T03:24:28;6.47;;;4.40;;
80127;SDS011;69440;52.118;5.408;2023-06-05T03:26:55;7.05;;;4.30;;
80127;SDS011;69440;52.118;5.408;2023-06-05T03:29:21;7.63;;;4.50;;
80127;SDS011;69440;52.118;5.408;2023-06-05T03:31:48;5.30;;;4.45;;
80127;SDS011;69440;52.118;5.408;2023-06-05T03:34:14;8.25;;;5.10;;
80127;SDS011;69440;52.118;5.408;2023-06-05T03:36:40;7.30;;;3.90;;
80127;SDS011;69440;52.118;5.408;2023-06-05T03:39:07;8.07;;;4.55;;
80127;SDS011;69440;52.118;5.408;2023-06-05T03:41:33;9.35;;;4.70;;
80127;SDS011;69440;52.118;5.408;2023-06-05T03:44:00;9.18;;;4.30;;
80127;SDS011;69440;52.118;5.408;2023-06-05T03:46:27;11.88;;;5.07;;
80127;SDS011;69440;52.118;5.408;2023-06-05T03:48:56;9.32;;;4.47;;
80127;SDS011;69440;52.118;5.408;2023-06-05T03:51:25;10.38;;;5.70;;
80127;SDS011;69440;52.118;5.408;2023-06-05T03:53:56;8.57;;;4.43;;
80127;SDS011;69440;52.118;5.408;2023-06-05T03:56:26;7.50;;;4.38;;
80127;SDS011;69440;52.118;5.408;2023-06-05T03:59:00;8.35;;;4.53;;
80127;SDS011;69440;52.118;5.408;2023-06-05T04:01:44;8.75;;;4.90;;
80127;SDS011;69440;52.118;5.408;2023-06-05T04:04:11;11.00;;;4.82;;
80127;SDS011;69440;52.118;5.408;2023-06-05T04:06:38;9.55;;;4.78;;
80127;SDS011;69440;52.118;5.408;2023-06-05T04:09:06;7.60;;;4.78;;
80127;SDS011;69440;52.118;5.408;2023-06-05T04:11:39;8.48;;;4.38;;
80127;SDS011;69440;52.118;5.408;2023-06-05T04:14:05;8.38;;;4.78;;
80127;SDS011;69440;52.118;5.408;2023-06-05T04:16:34;9.13;;;5.03;;
80127;SDS011;69440;52.118;5.408;2023-06-05T04:19:09;7.05;;;4.47;;
80127;SDS011;69440;52.118;5.408;2023-06-05T04:21:37;11.45;;;5.28;;
80127;SDS011;69440;52.118;5.408;2023-06-05T04:24:05;7.63;;;4.40;;
80127;SDS011;69440;52.118;5.408;2023-06-05T04:26:37;8.88;;;5.32;;
80127;SDS011;69440;52.118;5.408;2023-06-05T04:29:05;10.60;;;5.25;;
80127;SDS011;69440;52.118;5.408;2023-06-05T04:31:43;7.00;;;4.63;;
80127;SDS011;69440;52.118;5.408;2023-06-05T04:34:11;9.40;;;5.18;;
80127;SDS011;69440;52.118;5.408;2023-06-05T04:36:39;8.40;;;4.95;;
80127;SDS011;69440;52.118;5.408;2023-06-05T04:39:06;11.05;;;5.47;;
80127;SDS011;69440;52.118;5.408;2023-06-05T04:41:44;8.63;;;4.60;;
80127;SDS011;69440;52.118;5.408;2023-06-05T04:44:19;7.45;;;4.45;;
80127;SDS011;69440;52.118;5.408;2023-06-05T04:46:46;10.45;;;4.90;;
80127;SDS011;69440;52.118;5.408;2023-06-05T04:49:13;8.65;;;5.57;;
80127;SDS011;69440;52.118;5.408;2023-06-05T04:51:41;10.05;;;4.80;;
80127;SDS011;69440;52.118;5.408;2023-06-05T04:54:08;8.27;;;4.82;;
80127;SDS011;69440;52.118;5.408;2023-06-05T04:56:35;10.10;;;4.60;;
80127;SDS011;69440;52.118;5.408;2023-06-05T04:59:03;10.02;;;5.28;;
80127;SDS011;69440;52.118;5.408;2023-06-05T05:01:29;8.95;;;5.40;;
80127;SDS011;69440;52.118;5.408;2023-06-05T05:03:56;9.35;;;4.95;;
80127;SDS011;69440;52.118;5.408;2023-06-05T05:06:24;9.55;;;5.50;;
80127;SDS011;69440;52.118;5.408;2023-06-05T05:08:50;12.40;;;5.53;;
80127;SDS011;69440;52.118;5.408;2023-06-05T05:11:17;6.88;;;4.75;;
80127;SDS011;69440;52.118;5.408;2023-06-05T05:13:44;9.57;;;5.50;;
80127;SDS011;69440;52.118;5.408;2023-06-05T05:16:10;10.60;;;5.15;;
80127;SDS011;69440;52.118;5.408;2023-06-05T05:18:40;11.85;;;5.65;;
80127;SDS011;69440;52.118;5.408;2023-06-05T05:21:10;8.23;;;5.20;;
80127;SDS011;69440;52.118;5.408;2023-06-05T05:23:38;11.23;;;4.95;;
80127;SDS011;69440;52.118;5.408;2023-06-05T05:26:04;11.30;;;5.38;;
80127;SDS011;69440;52.118;5.408;2023-06-05T05:28:31;8.25;;;4.68;;
80127;SDS011;69440;52.118;5.408;2023-06-05T05:30:58;10.77;;;4.50;;
80127;SDS011;69440;52.118;5.408;2023-06-05T05:33:25;8.55;;;5.90;;
80127;SDS011;69440;52.118;5.408;2023-06-05T05:35:51;9.35;;;5.45;;
80127;SDS011;69440;52.118;5.408;2023-06-05T05:38:18;6.70;;;4.93;;
80127;SDS011;69440;52.118;5.408;2023-06-05T05:40:44;7.72;;;4.90;;
80127;SDS011;69440;52.118;5.408;2023-06-05T05:43:11;7.38;;;4.80;;
80127;SDS011;69440;52.118;5.408;2023-06-05T05:45:37;7.05;;;4.95;;
80127;SDS011;69440;52.118;5.408;2023-06-05T05:48:06;9.48;;;5.43;;
80127;SDS011;69440;52.118;5.408;2023-06-05T05:50:33;8.60;;;4.93;;
80127;SDS011;69440;52.118;5.408;2023-06-05T05:52:59;9.95;;;4.78;;
80127;SDS011;69440;52.118;5.408;2023-06-05T05:55:26;7.97;;;4.45;;
80127;SDS011;69440;52.118;5.408;2023-06-05T05:57:52;11.35;;;4.82;;
80127;SDS011;69440;52.118;5.408;2023-06-05T06:00:19;6.85;;;4.97;;
80127;SDS011;69440;52.118;5.408;2023-06-05T06:02:46;8.32;;;4.85;;
80127;SDS011;69440;52.118;5.408;2023-06-05T06:05:14;9.68;;;4.90;;
80127;SDS011;69440;52.118;5.408;2023-06-05T06:07:40;10.90;;;5.55;;
80127;SDS011;69440;52.118;5.408;2023-06-05T06:10:09;7.57;;;4.93;;
80127;SDS011;69440;52.118;5.408;2023-06-05T06:12:38;6.65;;;4.82;;
80127;SDS011;69440;52.118;5.408;2023-06-05T06:15:05;8.57;;;5.47;;
80127;SDS011;69440;52.118;5.408;2023-06-05T06:17:32;7.80;;;5.13;;
80127;SDS011;69440;52.118;5.408;2023-06-05T06:19:59;9.05;;;5.03;;
80127;SDS011;69440;52.118;5.408;2023-06-05T06:22:25;9.18;;;4.85;;
80127;SDS011;69440;52.118;5.408;2023-06-05T06:24:53;7.35;;;5.18;;
80127;SDS011;69440;52.118;5.408;2023-06-05T06:27:20;10.85;;;5.97;;
80127;SDS011;69440;52.118;5.408;2023-06-05T06:30:00;11.32;;;5.22;;
80127;SDS011;69440;52.118;5.408;2023-06-05T06:32:27;10.68;;;4.95;;
80127;SDS011;69440;52.118;5.408;2023-06-05T06:34:54;11.15;;;6.22;;
80127;SDS011;69440;52.118;5.408;2023-06-05T06:37:22;6.55;;;4.45;;
80127;SDS011;69440;52.118;5.408;2023-06-05T06:39:49;8.60;;;4.47;;
80127;SDS011;69440;52.118;5.408;2023-06-05T06:42:16;8.38;;;4.65;;
80127;SDS011;69440;52.118;5.408;2023-06-05T06:44:42;7.80;;;4.30;;
80127;SDS011;69440;52.118;5.408;2023-06-05T06:47:09;8.13;;;4.60;;
80127;SDS011;69440;52.118;5.408;2023-06-05T06:49:36;10.93;;;4.63;;
80127;SDS011;69440;52.118;5.408;2023-06-05T06:52:03;10.05;;;4.95;;
80127;SDS011;69440;52.118;5.408;2023-06-05T06:54:29;9.40;;;5.30;;
80127;SDS011;69440;52.118;5.408;2023-06-05T06:56:56;10.43;;;5.60;;
80127;SDS011;69440;52.118;5.408;2023-06-05T06:59:23;9.05;;;4.80;;
80127;SDS011;69440;52.118;5.408;2023-06-05T07:02:07;8.02;;;5.38;;
80127;SDS011;69440;52.118;5.408;2023-06-05T07:04:54;8.48;;;4.55;;
80127;SDS011;69440;52.118;5.408;2023-06-05T07:07:21;8.70;;;4.80;;
80127;SDS011;69440;52.118;5.408;2023-06-05T07:09:48;10.25;;;4.30;;
80127;SDS011;69440;52.118;5.408;2023-06-05T07:12:17;8.70;;;4.63;;
80127;SDS011;69440;52.118;5.408;2023-06-05T07:14:45;8.68;;;4.82;;
80127;SDS011;69440;52.118;5.408;2023-06-05T07:17:12;6.95;;;4.30;;
80127;SDS011;69440;52.118;5.408;2023-06-05T07:19:39;9.65;;;4.43;;
80127;SDS011;69440;52.118;5.408;2023-06-05T07:22:06;9.63;;;4.80;;
80127;SDS011;69440;52.118;5.408;2023-06-05T07:24:34;7.85;;;5.18;;
80127;SDS011;69440;52.118;5.408;2023-06-05T07:27:02;9.32;;;5.60;;
80127;SDS011;69440;52.118;5.408;2023-06-05T07:29:29;8.70;;;4.82;;
80127;SDS011;69440;52.118;5.408;2023-06-05T07:31:56;7.45;;;4.80;;
80127;SDS011;69440;52.118;5.408;2023-06-05T07:34:24;8.07;;;4.88;;
80127;SDS011;69440;52.118;5.408;2023-06-05T07:36:52;7.20;;;4.82;;
80127;SDS011;69440;52.118;5.408;2023-06-05T07:39:19;6.32;;;4.30;;
80127;SDS011;69440;52.118;5.408;2023-06-05T07:41:47;7.20;;;4.25;;
80127;SDS011;69440;52.118;5.408;2023-06-05T07:44:14;7.13;;;4.30;;
80127;SDS011;69440;52.118;5.408;2023-06-05T07:46:42;7.78;;;4.15;;
80127;SDS011;69440;52.118;5.408;2023-06-05T07:49:10;9.13;;;4.25;;
80127;SDS011;69440;52.118;5.408;2023-06-05T07:51:36;8.30;;;5.40;;
80127;SDS011;69440;52.118;5.408;2023-06-05T07:54:07;9.70;;;4.90;;
80127;SDS011;69440;52.118;5.408;2023-06-05T07:59:02;7.32;;;4.22;;
80127;SDS011;69440;52.118;5.408;2023-06-05T08:01:30;8.10;;;5.20;;
80127;SDS011;69440;52.118;5.408;2023-06-05T08:03:57;7.43;;;4.13;;
80127;SDS011;69440;52.118;5.408;2023-06-05T08:06:24;6.82;;;4.32;;
80127;SDS011;69440;52.118;5.408;2023-06-05T08:08:51;7.22;;;4.68;;
80127;SDS011;69440;52.118;5.408;2023-06-05T08:11:17;9.95;;;5.47;;
80127;SDS011;69440;52.118;5.408;2023-06-05T08:13:44;10.18;;;4.50;;
80127;SDS011;69440;52.118;5.408;2023-06-05T08:16:11;7.30;;;4.70;;
80127;SDS011;69440;52.118;5.408;2023-06-05T08:18:37;9.88;;;4.93;;
80127;SDS011;69440;52.118;5.408;2023-06-05T08:21:04;8.45;;;5.45;;
80127;SDS011;69440;52.118;5.408;2023-06-05T08:23:30;7.57;;;4.95;;
80127;SDS011;69440;52.118;5.408;2023-06-05T08:25:57;7.47;;;4.85;;
80127;SDS011;69440;52.118;5.408;2023-06-05T08:28:23;8.75;;;4.93;;
80127;SDS011;69440;52.118;5.408;2023-06-05T08:30:50;9.52;;;4.40;;
80127;SDS011;69440;52.118;5.408;2023-06-05T08:33:21;8.40;;;5.90;;
80127;SDS011;69440;52.118;5.408;2023-06-05T08:35:47;8.85;;;5.07;;
80127;SDS011;69440;52.118;5.408;2023-06-05T08:38:14;6.72;;;4.43;;
80127;SDS011;69440;52.118;5.408;2023-06-05T08:40:40;8.35;;;4.55;;
80127;SDS011;69440;52.118;5.408;2023-06-05T08:43:09;6.35;;;4.45;;
80127;SDS011;69440;52.118;5.408;2023-06-05T08:45:36;9.50;;;5.00;;
80127;SDS011;69440;52.118;5.408;2023-06-05T08:48:03;8.57;;;5.00;;
80127;SDS011;69440;52.118;5.408;2023-06-05T08:50:31;8.38;;;4.50;;
80127;SDS011;69440;52.118;5.408;2023-06-05T08:52:59;10.23;;;4.72;;
80127;SDS011;69440;52.118;5.408;2023-06-05T08:55:28;7.05;;;5.03;;
80127;SDS011;69440;52.118;5.408;2023-06-05T08:57:55;7.25;;;4.75;;
80127;SDS011;69440;52.118;5.408;2023-06-05T09:00:22;8.65;;;5.22;;
80127;SDS011;69440;52.118;5.408;2023-06-05T09:02:48;7.60;;;4.75;;
80127;SDS011;69440;52.118;5.408;2023-06-05T09:05:15;8.68;;;5.03;;
80127;SDS011;69440;52.118;5.408;2023-06-05T09:07:43;6.75;;;4.50;;
80127;SDS011;69440;52.118;5.408;2023-06-05T09:10:28;6.88;;;4.60;;
80127;SDS011;69440;52.118;5.408;2023-06-05T09:13:00;8.27;;;4.90;;
80127;SDS011;69440;52.118;5.408;2023-06-05T09:15:28;7.75;;;4.68;;
80127;SDS011;69440;52.118;5.408;2023-06-05T09:20:35;8.70;;;5.03;;
80127;SDS011;69440;52.118;5.408;2023-06-05T09:23:04;11.15;;;4.72;;
80127;SDS011;69440;52.118;5.408;2023-06-05T09:25:51;8.88;;;4.40;;
80127;SDS011;69440;52.118;5.408;2023-06-05T09:28:18;8.23;;;4.32;;
80127;SDS011;69440;52.118;5.408;2023-06-05T09:30:55;11.00;;;4.65;;
80127;SDS011;69440;52.118;5.408;2023-06-05T09:38:33;6.30;;;4.03;;
80127;SDS011;69440;52.118;5.408;2023-06-05T09:41:01;8.48;;;4.45;;
80127;SDS011;69440;52.118;5.408;2023-06-05T09:43:28;8.02;;;5.22;;
80127;SDS011;69440;52.118;5.408;2023-06-05T09:45:55;7.40;;;4.55;;
80127;SDS011;69440;52.118;5.408;2023-06-05T09:48:21;6.55;;;4.30;;
80127;SDS011;69440;52.118;5.408;2023-06-05T09:50:51;5.80;;;3.78;;
80127;SDS011;69440;52.118;5.408;2023-06-05T09:53:19;8.00;;;4.03;;
80127;SDS011;69440;52.118;5.408;2023-06-05T09:55:47;6.78;;;3.88;;
80127;SDS011;69440;52.118;5.408;2023-06-05T09:58:15;5.45;;;3.80;;
80127;SDS011;69440;52.118;5.408;2023-06-05T10:00:45;5.68;;;3.75;;
80127;SDS011;69440;52.118;5.408;2023-06-05T10:03:13;5.93;;;4.25;;
80127;SDS011;69440;52.118;5.408;2023-06-05T10:05:43;5.75;;;3.70;;
80127;SDS011;69440;52.118;5.408;2023-06-05T10:08:11;8.13;;;3.60;;
80127;SDS011;69440;52.118;5.408;2023-06-05T10:10:41;6.47;;;3.67;;
80127;SDS011;69440;52.118;5.408;2023-06-05T10:13:09;6.60;;;3.65;;
80127;SDS011;69440;52.118;5.408;2023-06-05T10:15:37;7.35;;;4.20;;
80127;SDS011;69440;52.118;5.408;2023-06-05T10:18:05;6.43;;;3.88;;
80127;SDS011;69440;52.118;5.408;2023-06-05T10:20:32;5.85;;;3.40;;
80127;SDS011;69440;52.118;5.408;2023-06-05T10:23:01;6.75;;;3.50;;
80127;SDS011;69440;52.118;5.408;2023-06-05T10:25:30;5.95;;;3.90;;
80127;SDS011;69440;52.118;5.408;2023-06-05T10:28:03;5.70;;;3.28;;
80127;SDS011;69440;52.118;5.408;2023-06-05T10:33:36;6.47;;;3.78;;
80127;SDS011;69440;52.118;5.408;2023-06-05T10:39:26;5.93;;;3.70;;
80127;SDS011;69440;52.118;5.408;2023-06-05T10:41:55;5.68;;;3.40;;
80127;SDS011;69440;52.118;5.408;2023-06-05T10:52:47;6.97;;;3.00;;
80127;SDS011;69440;52.118;5.408;2023-06-05T10:55:18;7.35;;;4.10;;
80127;SDS011;69440;52.118;5.408;2023-06-05T10:58:02;7.22;;;3.45;;
80127;SDS011;69440;52.118;5.408;2023-06-05T11:00:37;8.05;;;3.10;;
80127;SDS011;69440;52.118;5.408;2023-06-05T11:03:04;7.75;;;3.47;;
80127;SDS011;69440;52.118;5.408;2023-06-05T11:05:34;6.35;;;3.35;;
80127;SDS011;69440;52.118;5.408;2023-06-05T11:11:01;7.03;;;3.28;;
80127;SDS011;69440;52.118;5.408;2023-06-05T11:16:30;5.65;;;2.85;;
80127;SDS011;69440;52.118;5.408;2023-06-05T11:22:09;4.95;;;3.40;;
80127;SDS011;69440;52.118;5.408;2023-06-05T11:24:37;6.65;;;3.47;;
80127;SDS011;69440;52.118;5.408;2023-06-05T11:27:04;4.35;;;3.00;;
80127;SDS011;69440;52.118;5.408;2023-06-05T11:29:35;4.43;;;2.97;;
80127;SDS011;69440;52.118;5.408;2023-06-05T11:32:10;4.45;;;2.90;;
80127;SDS011;69440;52.118;5.408;2023-06-05T11:34:38;4.63;;;2.97;;
80127;SDS011;69440;52.118;5.408;2023-06-05T11:37:17;5.50;;;2.80;;
80127;SDS011;69440;52.118;5.408;2023-06-05T11:39:44;5.25;;;3.20;;
80127;SDS011;69440;52.118;5.408;2023-06-05T11:42:11;5.50;;;2.90;;
80127;SDS011;69440;52.118;5.408;2023-06-05T11:44:38;11.88;;;3.35;;
80127;SDS011;69440;52.118;5.408;2023-06-05T11:47:04;5.88;;;3.00;;
80127;SDS011;69440;52.118;5.408;2023-06-05T11:49:31;5.28;;;2.85;;
80127;SDS011;69440;52.118;5.408;2023-06-05T11:51:58;4.72;;;2.92;;
80127;SDS011;69440;52.118;5.408;2023-06-05T11:56:59;5.63;;;2.92;;
80127;SDS011;69440;52.118;5.408;2023-06-05T11:59:37;6.55;;;2.80;;
80127;SDS011;69440;52.118;5.408;2023-06-05T12:02:04;4.38;;;3.30;;
80127;SDS011;69440;52.118;5.408;2023-06-05T12:04:31;6.63;;;3.55;;
80127;SDS011;69440;52.118;5.408;2023-06-05T12:06:58;4.47;;;3.15;;
80127;SDS011;69440;52.118;5.408;2023-06-05T12:09:28;4.25;;;2.92;;
80127;SDS011;69440;52.118;5.408;2023-06-05T12:12:06;6.65;;;3.20;;
80127;SDS011;69440;52.118;5.408;2023-06-05T12:14:36;5.32;;;3.00;;
80127;SDS011;69440;52.118;5.408;2023-06-05T12:17:13;5.85;;;3.22;;
80127;SDS011;69440;52.118;5.408;2023-06-05T12:19:40;5.57;;;3.00;;
80127;SDS011;69440;52.118;5.408;2023-06-05T12:22:07;4.40;;;3.38;;
80127;SDS011;69440;52.118;5.408;2023-06-05T12:24:36;4.78;;;2.88;;
80127;SDS011;69440;52.118;5.408;2023-06-05T12:27:03;6.32;;;3.05;;
80127;SDS011;69440;52.118;5.408;2023-06-05T12:29:32;5.00;;;3.40;;
80127;SDS011;69440;52.118;5.408;2023-06-05T12:32:18;5.93;;;3.25;;
80127;SDS011;69440;52.118;5.408;2023-06-05T12:34:50;5.30;;;3.13;;
80127;SDS011;69440;52.118;5.408;2023-06-05T12:37:21;6.95;;;3.05;;
80127;SDS011;69440;52.118;5.408;2023-06-05T12:39:56;6.43;;;3.40;;
80127;SDS011;69440;52.118;5.408;2023-06-05T12:42:24;6.63;;;3.35;;
80127;SDS011;69440;52.118;5.408;2023-06-05T12:44:51;5.40;;;3.50;;
80127;SDS011;69440;52.118;5.408;2023-06-05T12:47:17;4.82;;;3.13;;
80127;SDS011;69440;52.118;5.408;2023-06-05T12:49:44;5.45;;;3.20;;
80127;SDS011;69440;52.118;5.408;2023-06-05T12:52:11;5.88;;;3.50;;
80127;SDS011;69440;52.118;5.408;2023-06-05T12:54:38;5.60;;;3.10;;
80127;SDS011;69440;52.118;5.408;2023-06-05T12:57:05;5.97;;;3.63;;
80127;SDS011;69440;52.118;5.408;2023-06-05T12:59:37;6.60;;;3.47;;
80127;SDS011;69440;52.118;5.408;2023-06-05T13:02:07;7.07;;;3.72;;
80127;SDS011;69440;52.118;5.408;2023-06-05T13:04:34;7.32;;;3.63;;
80127;SDS011;69440;52.118;5.408;2023-06-05T13:07:03;6.32;;;3.50;;
80127;SDS011;69440;52.118;5.408;2023-06-05T13:09:34;6.43;;;3.40;;
80127;SDS011;69440;52.118;5.408;2023-06-05T13:12:00;6.90;;;3.63;;
80127;SDS011;69440;52.118;5.408;2023-06-05T13:14:30;6.13;;;3.90;;
80127;SDS011;69440;52.118;5.408;2023-06-05T13:16:57;5.65;;;3.90;;
80127;SDS011;69440;52.118;5.408;2023-06-05T13:19:26;6.18;;;3.13;;
80127;SDS011;69440;52.118;5.408;2023-06-05T13:21:53;4.57;;;3.60;;
80127;SDS011;69440;52.118;5.408;2023-06-05T13:24:19;5.80;;;3.20;;
80127;SDS011;69440;52.118;5.408;2023-06-05T13:26:46;6.25;;;4.43;;
80127;SDS011;69440;52.118;5.408;2023-06-05T13:29:15;5.45;;;3.53;;
80127;SDS011;69440;52.118;5.408;2023-06-05T13:31:42;4.38;;;3.13;;
80127;SDS011;69440;52.118;5.408;2023-06-05T13:34:08;4.35;;;3.30;;
80127;SDS011;69440;52.118;5.408;2023-06-05T13:36:35;6.80;;;3.70;;
80127;SDS011;69440;52.118;5.408;2023-06-05T13:39:02;5.97;;;3.63;;
80127;SDS011;69440;52.118;5.408;2023-06-05T13:41:30;9.90;;;3.67;;
80127;SDS011;69440;52.118;5.408;2023-06-05T13:43:56;6.88;;;3.42;;
80127;SDS011;69440;52.118;5.408;2023-06-05T13:46:24;5.88;;;3.60;;
80127;SDS011;69440;52.118;5.408;2023-06-05T13:48:52;4.97;;;3.35;;
80127;SDS011;69440;52.118;5.408;2023-06-05T13:51:19;4.05;;;2.83;;
80127;SDS011;69440;52.118;5.408;2023-06-05T13:53:45;6.82;;;3.60;;
80127;SDS011;69440;52.118;5.408;2023-06-05T13:56:12;4.47;;;3.47;;
80127;SDS011;69440;52.118;5.408;2023-06-05T13:58:38;7.45;;;3.70;;
80127;SDS011;69440;52.118;5.408;2023-06-05T14:01:05;5.65;;;4.22;;
80127;SDS011;69440;52.118;5.408;2023-06-05T14:03:31;5.80;;;3.35;;
80127;SDS011;69440;52.118;5.408;2023-06-05T14:05:58;6.43;;;3.85;;
80127;SDS011;69440;52.118;5.408;2023-06-05T14:08:24;5.82;;;3.55;;
80127;SDS011;69440;52.118;5.408;2023-06-05T14:10:52;6.18;;;4.55;;
80127;SDS011;69440;52.118;5.408;2023-06-05T14:13:18;11.55;;;3.70;;
80127;SDS011;69440;52.118;5.408;2023-06-05T14:15:45;6.18;;;3.67;;
80127;SDS011;69440;52.118;5.408;2023-06-05T14:18:12;7.32;;;4.03;;
80127;SDS011;69440;52.118;5.408;2023-06-05T14:20:39;5.88;;;3.90;;
80127;SDS011;69440;52.118;5.408;2023-06-05T14:23:06;5.13;;;3.65;;
80127;SDS011;69440;52.118;5.408;2023-06-05T14:25:33;7.28;;;3.15;;
80127;SDS011;69440;52.118;5.408;2023-06-05T14:27:59;8.85;;;3.67;;
80127;SDS011;69440;52.118;5.408;2023-06-05T14:30:25;6.05;;;4.03;;
80127;SDS011;69440;52.118;5.408;2023-06-05T14:32:53;6.97;;;3.58;;
80127;SDS011;69440;52.118;5.408;2023-06-05T14:35:20;5.22;;;3.60;;
80127;SDS011;69440;52.118;5.408;2023-06-05T14:37:47;5.45;;;3.50;;
80127;SDS011;69440;52.118;5.408;2023-06-05T14:40:13;6.25;;;3.75;;
80127;SDS011;69440;52.118;5.408;2023-06-05T14:42:40;5.38;;;3.33;;
80127;SDS011;69440;52.118;5.408;2023-06-05T14:45:07;7.57;;;3.40;;
80127;SDS011;69440;52.118;5.408;2023-06-05T14:47:34;9.27;;;3.35;;
80127;SDS011;69440;52.118;5.408;2023-06-05T14:50:04;5.65;;;3.60;;
80127;SDS011;69440;52.118;5.408;2023-06-05T14:52:33;6.40;;;3.50;;
80127;SDS011;69440;52.118;5.408;2023-06-05T14:55:00;4.57;;;3.75;;
80127;SDS011;69440;52.118;5.408;2023-06-05T14:57:31;5.93;;;3.40;;
80127;SDS011;69440;52.118;5.408;2023-06-05T15:00:00;6.50;;;3.80;;
80127;SDS011;69440;52.118;5.408;2023-06-05T15:02:27;5.78;;;3.63;;
80127;SDS011;69440;52.118;5.408;2023-06-05T15:04:54;6.75;;;4.50;;
80127;SDS011;69440;52.118;5.408;2023-06-05T15:07:22;5.50;;;3.78;;
80127;SDS011;69440;52.118;5.408;2023-06-05T15:09:49;6.22;;;3.58;;
80127;SDS011;69440;52.118;5.408;2023-06-05T15:12:19;5.30;;;3.75;;
80127;SDS011;69440;52.118;5.408;2023-06-05T15:14:45;5.97;;;4.03;;
80127;SDS011;69440;52.118;5.408;2023-06-05T15:17:12;5.43;;;3.53;;
80127;SDS011;69440;52.118;5.408;2023-06-05T15:19:39;5.43;;;3.42;;
80127;SDS011;69440;52.118;5.408;2023-06-05T15:22:05;5.18;;;3.30;;
80127;SDS011;69440;52.118;5.408;2023-06-05T15:24:33;6.75;;;4.18;;
80127;SDS011;69440;52.118;5.408;2023-06-05T15:27:00;5.50;;;3.42;;
80127;SDS011;69440;52.118;5.408;2023-06-05T15:29:27;6.47;;;3.58;;
80127;SDS011;69440;52.118;5.408;2023-06-05T15:31:53;6.07;;;3.40;;
80127;SDS011;69440;52.118;5.408;2023-06-05T15:34:33;4.88;;;3.50;;
80127;SDS011;69440;52.118;5.408;2023-06-05T15:36:59;6.78;;;4.00;;